Change Date:Time:

Metar of : 5/29/2017 1900UTC
Metar
OPBL 291900Z 00000kT 6000 NSC 33/25 RH61%
OPDU 291900Z 09002KT 6000 HZ NSC 33/20 RH48%
OPFA 13004KT 4000 FU NSC 31/21 Q0999 NOSIG RH 56%
OPGD 291900Z 27004KTS 4000 HZ NSC 33/17 Q997 RH.37%
OPKC 291900Z 23004KT 7000 NSC 30/27 Q998 RH82%
OPKD 291900Z 21014KT 6000 NSC 31/27 Q0996 RH79%NO SIG
OPLA 16009KT 4000 HZ FEW100 31/18 Q1000 A29.55 NOSIG RH 46%
OPLRK 291900Z 09002KT 6000 NSC 37/24 Q997 RH49%
OPMIT 291900Z 22508KT6000 NSC 30/26 Q0997 RH75%
OPMJ 291900Z 00000KT 6000 34/22 Q.996. RH.49% NO SIG
OPMT 23004KT 4000 HZ NSC 34/19 Q0998 NOSIG RH 41%
OPNH 291900Z 00000KT 5000 HZ NSC 34/24 Q0995 RH56% NOSIG
OPSK 291900Z 05006KT 4000 HZ NSC 34/23 Q0995 NOSIG
OPST 13004KT 4000 HZ NSC 30/16 Q1000 NOSIG RH44%
CodeW.DirSpeedVisibilityCloud ConditionTempPressureHumidityStation
OPFA13004KT4000mHaze31oC999hp56%Faisalabad
OPGD27004KT4000mHaze33oC997hp37%Gawadar
OPKC23004KT7000mClear30oC998hp82%KARACHI A/P
OPKD21014KT6000mClear31oC996hpHyderabad
OPLA16009KT4000mPartly Cloudy31oC1000hp46%LAHORE A/P
OPMJ00000KT6000m34oC996hp49%MOHENJO DARO
OPMT23004KT4000mHaze34oC998hp41%Multan
OPNH00000KT5000mHaze34oC995hp56%Sh Benazirabad
OPSK05006KT4000mHaze34oC995hpSukkur
OPST13004KT4000mHaze30oC1000hp44%SIAL A/P SIALKOT